Time;durP1;ratioP1;P1;durP2;ratioP2;P2;SDS_P1;SDS_P2;PMS_P1;PMS_P2;Temp;Humidity;BMP_temperature;BMP_pressure;BME280_temperature;BME280_humidity;BME280_pressure;Samples;Min_cycle;Max_cycle;Signal;HPM_P1;HPM_P2
2021/05/01 00:00:28;;;;;;;19.27;16.98;;;20.40;99.90;;;;;;4922406;29;20042;-67
2021/05/01 00:02:55;;;;;;;20.63;15.80;;;20.60;99.90;;;;;;4934845;29;20024;-66
2021/05/01 00:05:25;;;;;;;21.40;16.20;;;20.80;99.90;;;;;;4931989;29;20040;-66
2021/05/01 00:07:53;;;;;;;19.20;15.27;;;21.00;99.90;;;;;;4931299;29;20095;-66
2021/05/01 00:10:20;;;;;;;15.85;14.27;;;21.10;99.90;;;;;;4934602;29;20036;-66
2021/05/01 00:12:50;;;;;;;18.45;14.18;;;21.10;99.90;;;;;;4918802;29;20433;-66
2021/05/01 00:15:18;;;;;;;18.25;13.73;;;21.30;99.90;;;;;;4932582;29;20075;-66
2021/05/01 00:17:45;;;;;;;20.23;14.13;;;21.40;99.90;;;;;;4931052;29;20071;-66
2021/05/01 00:20:13;;;;;;;14.63;10.80;;;21.40;99.90;;;;;;4929117;29;20130;-66
2021/05/01 00:22:40;;;;;;;14.07;10.00;;;21.70;99.90;;;;;;4954636;29;20412;-66
2021/05/01 00:25:08;;;;;;;12.75;9.32;;;21.70;99.90;;;;;;4934283;29;20055;-66
2021/05/01 00:27:35;;;;;;;14.15;8.95;;;21.30;99.90;;;;;;4935496;29;20043;-66
2021/05/01 00:30:05;;;;;;;11.15;8.90;;;21.80;99.90;;;;;;4933638;29;20044;-66
2021/05/01 00:32:36;;;;;;;11.00;8.38;;;21.90;99.90;;;;;;4935343;29;20111;-66
2021/05/01 00:35:04;;;;;;;11.18;8.70;;;21.80;99.90;;;;;;4931140;29;20051;-66
2021/05/01 00:37:32;;;;;;;11.63;8.93;;;21.90;99.90;;;;;;4931909;29;20039;-66
2021/05/01 00:39:59;;;;;;;11.70;9.27;;;22.30;99.90;;;;;;4917284;29;20047;-66
2021/05/01 00:42:26;;;;;;;10.90;8.82;;;22.30;99.90;;;;;;4935512;29;20573;-66
2021/05/01 00:44:54;;;;;;;10.57;6.78;;;22.30;99.90;;;;;;4915981;29;20130;-67
2021/05/01 00:47:21;;;;;;;8.50;7.22;;;22.00;99.90;;;;;;4918376;29;20036;-67
2021/05/01 00:49:48;;;;;;;9.18;4.90;;;21.70;99.90;;;;;;4932596;29;20038;-67
2021/05/01 00:52:16;;;;;;;4.95;3.38;;;21.50;99.90;;;;;;4935361;29;20043;-67
2021/05/01 00:54:43;;;;;;;7.32;3.50;;;21.20;99.90;;;;;;4933334;29;20039;-67
2021/05/01 00:57:11;;;;;;;5.78;2.70;;;21.40;99.90;;;;;;4935534;29;20052;-67
2021/05/01 00:59:39;;;;;;;4.95;2.08;;;21.90;99.90;;;;;;4932538;29;20508;-66
2021/05/01 01:02:06;;;;;;;5.25;2.67;;;22.10;99.90;;;;;;4935460;29;20059;-66
2021/05/01 01:04:34;;;;;;;2.25;1.00;;;21.80;99.90;;;;;;4933251;29;20123;-67
2021/05/01 01:07:01;;;;;;;4.38;1.58;;;21.70;99.90;;;;;;4935248;29;20055;-67
2021/05/01 01:09:28;;;;;;;4.78;2.13;;;22.10;99.90;;;;;;4933992;29;20039;-67
2021/05/01 01:11:55;;;;;;;5.47;1.88;;;22.30;99.90;;;;;;4936845;29;20067;-67
2021/05/01 01:14:23;;;;;;;5.38;1.15;;;22.10;99.90;;;;;;4919384;29;20052;-67
2021/05/01 01:16:50;;;;;;;6.18;2.67;;;22.50;99.90;;;;;;4922016;29;20035;-67
2021/05/01 01:19:17;;;;;;;3.10;2.08;;;22.90;99.90;;;;;;4937365;29;20063;-66
2021/05/01 01:21:47;;;;;;;4.10;0.90;;;22.80;99.90;;;;;;4920032;29;20040;-67
2021/05/01 01:24:15;;;;;;;2.63;0.70;;;22.90;99.90;;;;;;4938034;29;20500;-66
2021/05/01 01:26:43;;;;;;;3.80;0.80;;;22.70;99.90;;;;;;4939145;29;20116;-67
2021/05/01 01:29:15;;;;;;;3.38;1.00;;;22.80;99.90;;;;;;4937114;29;20043;-67
2021/05/01 01:31:43;;;;;;;3.13;0.85;;;22.50;99.90;;;;;;4932150;29;20032;-66
2021/05/01 01:34:11;;;;;;;3.67;0.85;;;22.00;99.90;;;;;;4934483;29;20078;-67
2021/05/01 01:36:38;;;;;;;3.28;1.00;;;21.60;99.90;;;;;;4921391;29;20044;-67
2021/05/01 01:39:06;;;;;;;3.70;1.05;;;21.20;99.90;;;;;;4936464;29;20040;-67
2021/05/01 01:41:33;;;;;;;2.95;0.93;;;21.10;99.90;;;;;;4938646;29;20107;-67
2021/05/01 01:44:00;;;;;;;3.55;1.20;;;21.10;99.90;;;;;;4936157;29;20042;-66
2021/05/01 01:46:28;;;;;;;7.03;2.00;;;21.20;99.90;;;;;;4921352;29;20058;-66
2021/05/01 01:48:56;;;;;;;3.78;1.30;;;21.10;99.90;;;;;;4936679;29;20499;-66
2021/05/01 01:51:23;;;;;;;5.18;1.60;;;21.20;99.90;;;;;;4938313;29;20051;-67
2021/05/01 01:53:51;;;;;;;5.03;1.52;;;21.20;99.90;;;;;;4936223;29;20060;-67
2021/05/01 01:56:18;;;;;;;3.78;1.35;;;21.20;99.90;;;;;;4938401;29;20432;-67
2021/05/01 01:58:46;;;;;;;5.30;1.30;;;21.10;99.90;;;;;;4917806;29;20040;-67
2021/05/01 02:01:13;;;;;;;3.60;0.90;;;21.00;99.90;;;;;;4921184;29;20036;-67
2021/05/01 02:03:44;;;;;;;3.10;0.90;;;20.80;99.90;;;;;;4920793;29;20099;-67
2021/05/01 02:06:11;;;;;;;5.57;1.40;;;20.80;99.90;;;;;;4938158;29;20135;-67
2021/05/01 02:08:39;;;;;;;5.07;1.35;;;20.80;99.90;;;;;;4936218;29;20028;-67
2021/05/01 02:11:07;;;;;;;6.28;1.05;;;20.60;99.90;;;;;;4903243;29;20090;-66
2021/05/01 02:13:34;;;;;;;6.78;1.23;;;20.70;99.90;;;;;;4915001;29;20039;-67
2021/05/01 02:16:01;;;;;;;6.47;1.30;;;20.70;99.90;;;;;;4935662;29;20043;-67
2021/05/01 02:18:30;;;;;;;2.63;0.70;;;20.80;99.90;;;;;;4917115;29;20043;-68
2021/05/01 02:20:57;;;;;;;3.92;1.00;;;20.70;99.90;;;;;;4918677;29;20051;-68
2021/05/01 02:23:25;;;;;;;4.03;1.08;;;20.60;99.90;;;;;;4927254;29;20412;-68
2021/05/01 02:25:52;;;;;;;3.67;0.93;;;20.60;99.90;;;;;;4917392;29;20126;-68
2021/05/01 02:28:19;;;;;;;9.23;1.85;;;20.60;99.90;;;;;;4915824;29;20040;-68
2021/05/01 02:30:47;;;;;;;7.07;2.15;;;20.50;99.90;;;;;;4917685;29;20067;-68
2021/05/01 02:33:14;;;;;;;6.05;2.22;;;20.40;99.90;;;;;;4934262;29;20472;-69
2021/05/01 02:35:42;;;;;;;6.75;2.08;;;20.30;99.90;;;;;;4915087;29;20131;-66
2021/05/01 02:38:10;;;;;;;4.80;1.90;;;20.70;99.90;;;;;;4931327;29;20233;-67
2021/05/01 02:40:37;;;;;;;5.07;1.60;;;21.00;99.90;;;;;;4913116;29;20051;-68
2021/05/01 02:43:10;;;;;;;4.22;1.58;;;20.90;99.90;;;;;;4932107;29;20501;-68
2021/05/01 02:45:37;;;;;;;2.70;1.13;;;20.90;99.90;;;;;;4915491;29;20110;-68
2021/05/01 02:48:06;;;;;;;3.13;1.13;;;21.40;99.90;;;;;;4933875;29;20143;-68
2021/05/01 02:50:33;;;;;;;8.15;0.90;;;22.20;99.90;;;;;;4935328;29;20142;-67
2021/05/01 02:53:01;;;;;;;18.02;1.20;;;22.60;99.90;;;;;;4933215;29;20051;-68
2021/05/01 02:55:28;;;;;;;1.67;0.50;;;23.10;99.90;;;;;;4919167;29;20424;-68
2021/05/01 02:57:55;;;;;;;4.60;0.57;;;23.30;99.90;;;;;;4917844;29;20047;-68
2021/05/01 03:00:25;;;;;;;1.90;0.47;;;23.60;99.90;;;;;;4935455;29;20049;-68
2021/05/01 03:02:52;;;;;;;3.20;0.57;;;23.60;99.90;;;;;;4925632;29;20083;-68
2021/05/01 03:05:21;;;;;;;4.43;0.50;;;23.00;99.90;;;;;;4934410;29;20598;-68
2021/05/01 03:07:48;;;;;;;2.88;0.40;;;22.50;99.90;;;;;;4936277;29;20035;-68
2021/05/01 03:10:20;;;;;;;3.95;0.60;;;22.10;99.90;;;;;;4933470;29;20087;-68
2021/05/01 03:12:47;;;;;;;4.70;0.95;;;22.50;99.90;;;;;;4918862;29;20058;-68
2021/05/01 03:15:15;;;;;;;1.70;0.30;;;22.20;99.90;;;;;;4916795;29;20042;-68
2021/05/01 03:17:43;;;;;;;4.43;0.77;;;22.00;99.90;;;;;;4917906;29;20048;-68
2021/05/01 03:20:12;;;;;;;5.05;0.50;;;21.60;99.90;;;;;;4929537;29;20059;-68
2021/05/01 03:22:40;;;;;;;5.32;0.73;;;21.30;99.90;;;;;;4930331;29;20154;-68
2021/05/01 03:25:09;;;;;;;1.85;0.55;;;21.20;99.90;;;;;;4931977;29;20127;-67
2021/05/01 03:27:37;;;;;;;4.05;0.65;;;21.00;99.90;;;;;;4918258;29;20130;-67
2021/05/01 03:30:08;;;;;;;5.13;0.40;;;20.70;99.90;;;;;;4935087;29;20172;-67
2021/05/01 03:32:36;;;;;;;3.22;0.80;;;20.60;99.90;;;;;;4935437;29;20040;-67
2021/05/01 03:35:03;;;;;;;2.13;0.20;;;20.60;99.90;;;;;;4919375;29;20493;-67
2021/05/01 03:37:31;;;;;;;4.78;0.32;;;20.60;99.90;;;;;;4917396;29;20089;-67
2021/05/01 03:39:58;;;;;;;3.10;0.50;;;20.60;99.90;;;;;;4932879;29;20115;-67
2021/05/01 03:42:26;;;;;;;5.07;0.50;;;20.60;99.90;;;;;;4933580;29;20060;-67
2021/05/01 03:44:53;;;;;;;4.95;0.60;;;20.60;99.90;;;;;;4934176;29;20485;-67
2021/05/01 03:47:20;;;;;;;8.57;1.05;;;20.80;99.90;;;;;;4936286;29;20492;-67
2021/05/01 03:49:48;;;;;;;3.70;0.60;;;21.20;99.90;;;;;;4934196;29;20047;-67
2021/05/01 03:52:15;;;;;;;3.05;0.40;;;21.50;99.90;;;;;;4935908;29;20040;-67
2021/05/01 03:54:42;;;;;;;3.33;0.70;;;21.70;99.90;;;;;;4934425;29;20042;-67
2021/05/01 03:57:09;;;;;;;7.55;0.57;;;21.30;99.90;;;;;;4936033;29;20520;-68
2021/05/01 03:59:37;;;;;;;2.42;0.50;;;21.20;99.90;;;;;;4933775;29;20382;-67
2021/05/01 04:02:05;;;;;;;5.45;0.30;;;21.10;99.90;;;;;;4935836;29;20392;-67
2021/05/01 04:04:32;;;;;;;5.53;0.70;;;21.00;99.90;;;;;;4933596;29;20039;-67
2021/05/01 04:07:00;;;;;;;4.43;0.65;;;20.90;99.90;;;;;;4935726;29;20099;-68
2021/05/01 04:09:27;;;;;;;3.47;0.55;;;20.90;99.90;;;;;;4933633;29;20040;-67
2021/05/01 04:11:55;;;;;;;5.45;1.05;;;20.90;99.90;;;;;;4935767;29;20031;-67
2021/05/01 04:14:22;;;;;;;3.97;0.60;;;20.90;99.90;;;;;;4929874;29;20050;-67
2021/05/01 04:16:49;;;;;;;7.70;1.63;;;21.10;99.90;;;;;;4915337;29;20042;-67
2021/05/01 04:19:17;;;;;;;5.03;0.47;;;21.00;99.90;;;;;;4927862;29;20043;-67
2021/05/01 04:21:44;;;;;;;4.85;0.47;;;20.80;99.90;;;;;;4931188;29;20139;-67
2021/05/01 04:24:11;;;;;;;5.55;0.65;;;20.60;99.90;;;;;;4931986;29;20039;-67
2021/05/01 04:26:39;;;;;;;2.45;0.20;;;20.60;99.90;;;;;;4934704;29;20150;-67
2021/05/01 04:29:07;;;;;;;4.75;0.50;;;20.50;99.90;;;;;;4933786;29;20499;-67
2021/05/01 04:31:34;;;;;;;3.25;0.30;;;20.50;99.90;;;;;;4933913;29;20115;-67
2021/05/01 04:34:01;;;;;;;5.95;0.85;;;20.50;99.90;;;;;;4920737;29;20066;-68
2021/05/01 04:36:29;;;;;;;4.57;0.43;;;20.60;99.90;;;;;;4916128;29;20044;-67
2021/05/01 04:38:56;;;;;;;3.83;0.52;;;20.60;99.90;;;;;;4923153;29;20032;-68
2021/05/01 04:41:23;;;;;;;3.22;0.40;;;20.70;99.90;;;;;;4917843;29;20497;-67
2021/05/01 04:43:52;;;;;;;7.90;0.63;;;20.60;99.90;;;;;;4932975;29;20515;-68
2021/05/01 04:46:19;;;;;;;8.07;0.65;;;20.60;99.90;;;;;;4934492;29;20055;-67
2021/05/01 04:48:46;;;;;;;5.72;0.50;;;20.70;99.90;;;;;;4933649;29;20523;-68
2021/05/01 04:51:14;;;;;;;4.95;0.45;;;20.80;99.90;;;;;;4935188;29;20408;-68
2021/05/01 04:53:41;;;;;;;3.47;0.60;;;20.90;99.90;;;;;;4933668;29;20035;-67
2021/05/01 04:56:08;;;;;;;4.10;0.70;;;21.00;99.90;;;;;;4916135;29;20042;-67
2021/05/01 04:58:35;;;;;;;4.07;0.68;;;20.90;99.90;;;;;;4916387;29;20604;-67
2021/05/01 05:01:03;;;;;;;4.53;0.65;;;20.70;99.90;;;;;;4935060;29;20493;-67
2021/05/01 05:03:30;;;;;;;5.32;0.50;;;20.60;99.90;;;;;;4933725;29;20143;-67
2021/05/01 05:05:57;;;;;;;4.88;0.68;;;20.50;99.90;;;;;;4934931;29;20401;-67
2021/05/01 05:08:25;;;;;;;9.32;1.27;;;20.50;99.90;;;;;;4933320;29;20127;-68
2021/05/01 05:10:52;;;;;;;4.90;0.60;;;20.50;99.90;;;;;;4935302;29;20523;-67
2021/05/01 05:13:28;;;;;;;8.13;0.60;;;20.50;99.90;;;;;;4916464;29;20091;-68
2021/05/01 05:15:56;;;;;;;8.18;0.85;;;20.50;99.90;;;;;;4931891;29;20052;-68
2021/05/01 05:18:23;;;;;;;3.92;0.50;;;20.50;99.90;;;;;;4932982;29;20036;-67
2021/05/01 05:20:50;;;;;;;7.00;0.95;;;20.40;99.90;;;;;;4934568;29;20036;-67
2021/05/01 05:23:18;;;;;;;7.82;1.33;;;20.30;99.90;;;;;;4927837;29;20063;-68
2021/05/01 05:25:45;;;;;;;4.97;0.70;;;20.30;99.90;;;;;;4934403;29;20071;-68
2021/05/01 05:28:13;;;;;;;8.52;0.60;;;20.20;99.90;;;;;;4931827;29;20040;-67
2021/05/01 05:30:40;;;;;;;10.55;1.48;;;20.20;99.90;;;;;;4934146;29;20401;-68
2021/05/01 05:33:07;;;;;;;5.05;0.70;;;20.10;99.90;;;;;;4933152;29;20034;-68
2021/05/01 05:35:35;;;;;;;2.90;0.35;;;20.10;99.90;;;;;;4933298;29;20501;-68
2021/05/01 05:38:02;;;;;;;4.65;1.05;;;20.10;99.90;;;;;;4933570;29;20031;-68
2021/05/01 05:40:32;;;;;;;7.70;0.80;;;20.00;99.90;;;;;;4916793;29;20036;-68
2021/05/01 05:43:00;;;;;;;6.35;0.88;;;20.00;99.90;;;;;;4931111;29;20044;-68
2021/05/01 05:45:30;;;;;;;2.90;0.80;;;20.00;99.90;;;;;;4917414;29;20043;-67
2021/05/01 05:47:58;;;;;;;7.80;1.42;;;20.10;99.90;;;;;;4933250;29;20047;-68
2021/05/01 05:50:25;;;;;;;4.65;0.52;;;20.10;99.90;;;;;;4933950;29;20039;-68
2021/05/01 05:52:53;;;;;;;6.60;0.60;;;20.00;99.90;;;;;;4916374;29;20449;-68
2021/05/01 05:55:20;;;;;;;6.53;0.82;;;20.00;99.90;;;;;;4933508;29;20123;-68
2021/05/01 05:57:55;;;;;;;7.15;1.25;;;20.10;99.90;;;;;;4934666;29;20473;-67
2021/05/01 06:00:25;;;;;;;9.23;2.08;;;20.00;99.90;;;;;;4936819;29;20040;-68
2021/05/01 06:02:54;;;;;;;8.82;0.88;;;20.00;99.90;;;;;;4936811;29;20046;-68
2021/05/01 06:05:33;;;;;;;6.40;0.45;;;20.00;99.90;;;;;;4936219;29;20501;-68
2021/05/01 06:08:05;;;;;;;11.20;0.80;;;20.00;99.90;;;;;;4933243;29;20493;-68
2021/05/01 06:10:33;;;;;;;5.10;0.50;;;20.00;99.90;;;;;;4933073;29;20036;-68
2021/05/01 06:13:04;;;;;;;7.70;1.02;;;20.00;99.90;;;;;;4929857;29;20082;-67
2021/05/01 06:15:32;;;;;;;7.43;0.77;;;20.00;99.90;;;;;;4932973;29;20054;-67
2021/05/01 06:18:03;;;;;;;6.53;0.65;;;20.00;99.90;;;;;;4935976;29;20553;-67
2021/05/01 06:20:32;;;;;;;3.42;0.50;;;20.00;99.90;;;;;;4935154;29;20046;-67
2021/05/01 06:23:01;;;;;;;5.25;0.65;;;20.00;99.90;;;;;;4935202;29;20103;-67
2021/05/01 06:25:29;;;;;;;4.50;0.43;;;19.90;99.90;;;;;;4936068;29;20044;-67
2021/05/01 06:27:56;;;;;;;5.43;0.65;;;19.90;99.90;;;;;;4918742;29;20043;-67
2021/05/01 06:30:25;;;;;;;6.78;0.88;;;19.90;99.90;;;;;;4936475;29;20036;-68
2021/05/01 06:32:52;;;;;;;8.30;1.25;;;19.90;99.90;;;;;;4936652;29;20481;-68
2021/05/01 06:35:21;;;;;;;8.88;0.88;;;19.80;99.90;;;;;;4935070;29;20508;-67
2021/05/01 06:37:51;;;;;;;11.30;1.45;;;19.80;99.90;;;;;;4936295;29;20036;-67
2021/05/01 06:40:22;;;;;;;5.93;0.60;;;19.80;99.90;;;;;;4936812;29;20115;-67
2021/05/01 06:43:01;;;;;;;10.07;1.30;;;19.70;99.90;;;;;;4919109;29;20043;-68
2021/05/01 06:45:29;;;;;;;5.43;1.00;;;19.70;99.90;;;;;;4936579;29;20055;-67
2021/05/01 06:48:02;;;;;;;6.15;0.93;;;19.70;99.90;;;;;;4937030;29;20114;-68
2021/05/01 06:50:30;;;;;;;6.55;1.25;;;19.70;99.90;;;;;;4919091;29;20664;-68
2021/05/01 06:52:58;;;;;;;4.43;0.82;;;19.60;99.90;;;;;;4919871;29;20071;-68
2021/05/01 06:55:31;;;;;;;7.57;1.52;;;19.50;99.90;;;;;;4919708;29;20087;-68
2021/05/01 06:58:00;;;;;;;9.48;1.15;;;19.60;99.90;;;;;;4919805;29;20047;-68
2021/05/01 07:00:29;;;;;;;6.07;1.92;;;19.50;99.90;;;;;;4936738;29;20113;-68
2021/05/01 07:03:09;;;;;;;7.40;0.70;;;19.50;99.90;;;;;;4919355;29;20077;-68
2021/05/01 07:05:37;;;;;;;7.70;0.60;;;19.50;99.90;;;;;;4913990;29;20401;-68
2021/05/01 07:08:06;;;;;;;11.48;1.50;;;19.50;99.90;;;;;;4936716;29;20118;-68
2021/05/01 07:10:36;;;;;;;8.90;1.20;;;19.50;99.90;;;;;;4919117;29;20036;-68
2021/05/01 07:13:04;;;;;;;6.88;0.93;;;19.40;99.90;;;;;;4919533;29;20425;-68
2021/05/01 07:15:31;;;;;;;6.75;0.88;;;19.40;99.90;;;;;;4918962;29;20119;-68
2021/05/01 07:17:59;;;;;;;7.07;0.68;;;19.40;99.90;;;;;;4915383;29;20040;-68
2021/05/01 07:20:26;;;;;;;5.95;0.90;;;19.30;99.90;;;;;;4919083;29;20059;-68
2021/05/01 07:22:55;;;;;;;8.13;1.10;;;19.30;99.90;;;;;;4934242;29;20036;-67
2021/05/01 07:25:23;;;;;;;8.10;1.80;;;19.30;99.90;;;;;;4935657;29;20036;-68
2021/05/01 07:27:56;;;;;;;6.18;0.95;;;19.20;99.90;;;;;;4916954;29;20042;-68
2021/05/01 07:30:27;;;;;;;6.35;1.27;;;19.20;99.90;;;;;;4918436;29;20161;-68
2021/05/01 07:33:01;;;;;;;5.68;0.60;;;19.30;99.90;;;;;;4934682;29;20059;-68
2021/05/01 07:35:31;;;;;;;9.23;1.27;;;19.30;99.90;;;;;;4918150;29;20043;-68
2021/05/01 07:38:05;;;;;;;4.25;1.00;;;19.30;99.90;;;;;;4934626;29;20505;-68
2021/05/01 07:40:32;;;;;;;7.43;0.90;;;19.30;99.90;;;;;;4936033;29;20564;-68
2021/05/01 07:43:01;;;;;;;4.68;1.10;;;19.30;99.90;;;;;;4917637;29;20058;-68
2021/05/01 07:45:28;;;;;;;4.82;0.70;;;19.30;99.90;;;;;;4917795;29;20050;-68
2021/05/01 07:47:57;;;;;;;7.95;1.33;;;19.30;99.90;;;;;;4934703;29;20579;-68
2021/05/01 07:50:27;;;;;;;12.82;1.60;;;19.20;99.90;;;;;;4935252;29;20043;-68
2021/05/01 07:52:56;;;;;;;6.57;1.00;;;19.30;99.90;;;;;;4929973;29;20156;-67
2021/05/01 07:55:24;;;;;;;6.90;1.33;;;19.30;99.90;;;;;;4916205;29;20079;-68
2021/05/01 07:57:52;;;;;;;8.02;1.30;;;19.30;99.90;;;;;;4928273;29;20385;-68
2021/05/01 08:00:21;;;;;;;5.80;1.10;;;19.30;99.90;;;;;;4933512;29;20035;-68
2021/05/01 08:02:49;;;;;;;5.00;1.55;;;19.30;99.90;;;;;;4935294;29;20537;-68
2021/05/01 08:05:21;;;;;;;11.27;1.52;;;19.30;99.90;;;;;;4934020;29;20044;-68
2021/05/01 08:07:49;;;;;;;7.47;1.45;;;19.30;99.90;;;;;;4917256;29;20063;-68
2021/05/01 08:10:16;;;;;;;4.82;1.08;;;19.20;99.90;;;;;;4934597;29;20569;-68
2021/05/01 08:12:44;;;;;;;7.47;1.02;;;19.20;99.90;;;;;;4917607;29;20481;-68
2021/05/01 08:15:12;;;;;;;4.70;1.00;;;19.20;99.90;;;;;;4918159;29;20496;-68
2021/05/01 08:17:43;;;;;;;6.32;1.38;;;19.20;99.90;;;;;;4935455;29;20035;-68
2021/05/01 08:20:12;;;;;;;4.10;0.80;;;19.20;99.90;;;;;;4917531;29;20404;-68
2021/05/01 08:22:41;;;;;;;5.65;1.00;;;19.20;99.90;;;;;;4933953;29;20032;-68
2021/05/01 08:25:11;;;;;;;7.90;1.83;;;19.20;99.90;;;;;;4917336;29;20032;-68
2021/05/01 08:27:38;;;;;;;7.47;0.90;;;19.20;99.90;;;;;;4926112;29;20051;-69
2021/05/01 08:30:15;;;;;;;5.93;1.50;;;19.20;99.90;;;;;;4934587;29;20035;-69
2021/05/01 08:32:43;;;;;;;5.63;1.75;;;19.20;99.90;;;;;;4934837;29;20066;-68
2021/05/01 08:35:12;;;;;;;4.03;0.88;;;19.10;99.90;;;;;;4934779;29;20039;-69
2021/05/01 08:37:39;;;;;;;4.22;0.70;;;19.10;99.90;;;;;;4934907;29;20032;-69
2021/05/01 08:40:08;;;;;;;5.20;1.38;;;19.10;99.90;;;;;;4935907;29;20031;-69
2021/05/01 08:42:35;;;;;;;11.55;2.13;;;19.10;99.90;;;;;;4933896;29;20512;-69
2021/05/01 08:45:07;;;;;;;4.18;1.08;;;19.10;99.90;;;;;;4928330;29;20055;-69
2021/05/01 08:47:40;;;;;;;5.85;1.17;;;19.20;99.90;;;;;;4934705;29;20098;-69
2021/05/01 08:50:20;;;;;;;5.65;0.85;;;19.20;99.90;;;;;;4934078;29;20107;-69
2021/05/01 08:52:48;;;;;;;4.68;0.85;;;19.20;99.90;;;;;;4934034;29;20040;-68
2021/05/01 08:55:16;;;;;;;5.25;0.82;;;19.20;99.90;;;;;;4934403;29;20300;-68
2021/05/01 08:57:43;;;;;;;7.35;1.10;;;19.20;99.90;;;;;;4933867;29;20118;-68
2021/05/01 09:00:11;;;;;;;9.63;1.30;;;19.20;99.90;;;;;;4917263;29;20039;-68
2021/05/01 09:02:40;;;;;;;9.93;1.20;;;19.20;99.90;;;;;;4934396;29;20050;-69
2021/05/01 09:05:10;;;;;;;11.90;2.40;;;19.20;99.90;;;;;;4934125;29;20123;-69
2021/05/01 09:07:45;;;;;;;9.05;2.38;;;19.20;99.90;;;;;;4933824;29;20104;-69
2021/05/01 09:10:14;;;;;;;13.90;3.08;;;19.20;99.90;;;;;;4934387;29;20119;-68
2021/05/01 09:12:44;;;;;;;6.30;0.95;;;19.20;99.90;;;;;;4934059;29;20035;-68
2021/05/01 09:15:21;;;;;;;10.38;1.60;;;19.10;99.90;;;;;;4934214;29;20075;-68
2021/05/01 09:17:58;;;;;;;7.93;1.30;;;19.20;99.90;;;;;;4934321;29;20032;-68
2021/05/01 09:20:26;;;;;;;14.07;1.90;;;19.10;99.90;;;;;;4928375;29;20047;-68
2021/05/01 09:23:01;;;;;;;13.45;2.45;;;19.10;99.90;;;;;;4933683;29;20094;-68
2021/05/01 09:25:32;;;;;;;9.65;1.40;;;19.00;99.90;;;;;;4934616;29;20032;-69
2021/05/01 09:28:18;;;;;;;19.40;2.08;;;19.00;99.90;;;;;;4933673;29;20374;-68
2021/05/01 09:31:01;;;;;;;11.23;1.88;;;19.00;99.90;;;;;;4915938;29;20039;-69
2021/05/01 09:33:36;;;;;;;13.43;1.90;;;19.00;99.90;;;;;;4917095;29;20032;-69
2021/05/01 09:36:05;;;;;;;14.80;2.22;;;19.00;99.90;;;;;;4935559;29;20417;-68
2021/05/01 09:38:39;;;;;;;13.82;2.10;;;19.00;99.90;;;;;;4937261;29;20153;-68
2021/05/01 09:41:33;;;;;;;13.90;2.20;;;19.00;99.90;;;;;;4919715;29;20091;-69
2021/05/01 09:44:06;;;;;;;;;;;19.00;99.90;;;;;;4917650;29;20056;-69
2021/05/01 09:46:41;;;;;;;12.60;1.67;;;19.00;99.90;;;;;;4926159;29;19915;-68
2021/05/01 09:49:31;;;;;;;10.57;1.88;;;18.90;99.90;;;;;;4937617;29;20115;-68
2021/05/01 09:52:00;;;;;;;9.98;1.60;;;18.90;99.90;;;;;;4937795;29;20039;-68
2021/05/01 09:54:30;;;;;;;8.98;1.60;;;18.80;99.90;;;;;;4937473;29;20036;-69
2021/05/01 09:57:04;;;;;;;13.63;1.60;;;18.80;99.90;;;;;;4937406;29;20036;-69
2021/05/01 09:59:52;;;;;;;12.32;2.67;;;18.80;99.90;;;;;;4937173;29;20393;-69
2021/05/01 10:02:22;;;;;;;6.50;1.30;;;18.90;99.90;;;;;;4927672;29;20474;-68
2021/05/01 10:05:12;;;;;;;11.32;1.98;;;18.80;99.90;;;;;;4936782;29;20040;-69
2021/05/01 10:07:49;;;;;;;9.73;1.70;;;18.80;99.90;;;;;;4931462;29;20031;-69
2021/05/01 10:10:17;;;;;;;14.25;2.80;;;18.80;99.90;;;;;;4935298;29;20043;-69
2021/05/01 10:12:46;;;;;;;8.38;1.25;;;18.80;99.90;;;;;;4935386;29;20039;-69
2021/05/01 10:15:18;;;;;;;12.30;1.55;;;18.80;99.90;;;;;;4935265;29;20167;-68
2021/05/01 10:17:50;;;;;;;10.10;1.92;;;18.80;99.90;;;;;;4935294;29;20115;-69
2021/05/01 10:20:19;;;;;;;11.98;1.98;;;18.90;99.90;;;;;;4937237;29;20032;-69
2021/05/01 10:22:47;;;;;;;6.75;1.63;;;18.90;99.90;;;;;;4936597;29;20091;-69
2021/05/01 10:25:29;;;;;;;10.35;1.60;;;18.80;99.90;;;;;;4936159;29;20032;-69
2021/05/01 10:28:02;;;;;;;8.90;1.10;;;18.80;99.90;;;;;;4936113;29;20396;-69
2021/05/01 10:30:53;;;;;;;10.52;1.55;;;18.90;99.90;;;;;;4918891;29;20031;-68
2021/05/01 10:33:46;;;;;;;8.70;1.42;;;18.80;99.90;;;;;;4936683;29;20032;-69
2021/05/01 10:36:33;;;;;;;5.43;0.70;;;18.80;99.90;;;;;;4934024;29;20193;-68
2021/05/01 10:39:06;;;;;;;5.53;0.75;;;18.80;99.90;;;;;;4924370;29;20044;-69
2021/05/01 10:41:35;;;;;;;8.23;1.73;;;18.80;99.90;;;;;;4934199;29;20051;-69
2021/05/01 10:44:06;;;;;;;8.02;1.15;;;18.80;99.90;;;;;;4935074;29;20028;-69
2021/05/01 10:46:41;;;;;;;14.25;1.88;;;18.70;99.90;;;;;;4936336;29;20047;-69
2021/05/01 10:49:11;;;;;;;13.43;1.40;;;18.70;99.90;;;;;;4935444;29;20090;-69
2021/05/01 10:51:40;;;;;;;12.32;1.25;;;18.70;99.90;;;;;;4936045;29;21038;-69
2021/05/01 10:54:11;;;;;;;7.03;1.08;;;18.70;99.90;;;;;;4936239;29;20036;-69
2021/05/01 10:57:00;;;;;;;8.85;1.20;;;18.70;99.90;;;;;;4935531;29;20074;-69
2021/05/01 10:59:30;;;;;;;6.97;1.15;;;18.70;99.90;;;;;;4936190;29;20119;-69
2021/05/01 11:02:01;;;;;;;7.65;1.30;;;18.70;99.90;;;;;;4936545;29;20032;-69
2021/05/01 11:04:33;;;;;;;8.90;1.15;;;18.70;99.90;;;;;;4936334;29;20032;-69
2021/05/01 11:07:11;;;;;;;8.45;1.13;;;18.70;99.90;;;;;;4933820;29;20127;-68
2021/05/01 11:09:43;;;;;;;8.30;1.50;;;18.70;99.90;;;;;;4925742;29;20039;-68
2021/05/01 11:12:13;;;;;;;5.97;0.88;;;18.70;99.90;;;;;;4934782;29;20035;-69
2021/05/01 11:14:47;;;;;;;9.50;1.73;;;18.70;99.90;;;;;;4934862;29;20040;-69
2021/05/01 11:17:41;;;;;;;8.32;1.08;;;18.70;99.90;;;;;;4933305;29;20046;-69
2021/05/01 11:20:11;;;;;;;4.85;0.50;;;18.70;99.90;;;;;;4926352;29;20035;-69
2021/05/01 11:22:44;;;;;;;11.40;1.55;;;18.70;99.90;;;;;;4932026;29;20035;-69
2021/05/01 11:25:20;;;;;;;4.72;1.00;;;18.70;99.90;;;;;;4920132;29;20384;-69
2021/05/01 11:27:52;;;;;;;8.40;0.90;;;18.60;99.90;;;;;;4915478;29;20461;-70
2021/05/01 11:30:23;;;;;;;5.65;0.93;;;18.60;99.90;;;;;;4924814;29;20036;-70
2021/05/01 11:32:51;;;;;;;9.30;0.93;;;18.60;99.90;;;;;;4935556;29;20040;-69
2021/05/01 11:35:24;;;;;;;5.45;1.30;;;18.60;99.90;;;;;;4934289;29;20054;-69
2021/05/01 11:37:57;;;;;;;6.78;1.13;;;18.60;99.90;;;;;;4918262;29;20123;-69
2021/05/01 11:40:29;;;;;;;7.57;1.15;;;18.50;99.90;;;;;;4934754;29;20032;-69
2021/05/01 11:42:57;;;;;;;5.13;0.80;;;18.50;99.90;;;;;;4926444;29;20051;-69
2021/05/01 11:45:49;;;;;;;7.80;1.00;;;18.40;99.90;;;;;;4935290;29;20043;-69
2021/05/01 11:48:40;;;;;;;6.45;1.48;;;18.40;99.90;;;;;;4936007;29;20067;-69
2021/05/01 11:51:11;;;;;;;8.15;1.55;;;18.40;99.90;;;;;;4918254;29;20400;-70
2021/05/01 11:53:52;;;;;;;5.40;1.33;;;18.30;99.90;;;;;;4934711;29;20509;-70
2021/05/01 11:56:20;;;;;;;7.65;0.75;;;18.30;99.90;;;;;;4934665;29;20059;-70
2021/05/01 11:58:48;;;;;;;7.05;0.75;;;18.30;99.90;;;;;;4934114;29;20119;-70
2021/05/01 12:01:20;;;;;;;6.78;1.17;;;18.30;99.90;;;;;;4934301;29;20051;-70
2021/05/01 12:03:59;;;;;;;6.63;0.93;;;18.30;99.90;;;;;;4934292;29;20488;-70
2021/05/01 12:06:43;;;;;;;7.80;1.10;;;18.30;99.90;;;;;;4933768;29;20032;-69
2021/05/01 12:09:17;;;;;;;;;;;18.30;99.90;;;;;;4933635;29;20035;-69
2021/05/01 12:11:49;;;;;;;5.85;0.90;;;18.30;99.90;;;;;;4934691;29;19918;-69
2021/05/01 12:14:18;;;;;;;6.10;0.90;;;18.30;99.90;;;;;;4934603;29;20042;-70
2021/05/01 12:16:46;;;;;;;6.32;0.70;;;18.30;99.90;;;;;;4934742;29;20042;-70
2021/05/01 12:19:26;;;;;;;6.57;0.60;;;18.20;99.90;;;;;;4934667;29;20538;-70
2021/05/01 12:21:55;;;;;;;8.13;0.80;;;18.20;99.90;;;;;;4934718;29;20046;-70
2021/05/01 12:24:31;;;;;;;6.57;0.50;;;18.20;99.90;;;;;;4934515;29;20616;-70
2021/05/01 12:27:00;;;;;;;5.65;0.63;;;18.20;99.90;;;;;;4934440;29;20039;-70
2021/05/01 12:29:33;;;;;;;9.45;1.00;;;18.20;99.90;;;;;;4916230;29;20046;-70
2021/05/01 12:32:06;;;;;;;6.75;0.82;;;18.10;99.90;;;;;;4935019;29;20400;-70
2021/05/01 12:34:52;;;;;;;5.95;0.60;;;18.10;99.90;;;;;;4934221;29;20044;-70
2021/05/01 12:37:22;;;;;;;12.77;1.20;;;18.10;99.90;;;;;;4933872;29;20514;-70
2021/05/01 12:39:51;;;;;;;7.85;1.15;;;18.10;99.90;;;;;;4934198;29;20035;-70
2021/05/01 12:42:23;;;;;;;5.70;0.82;;;18.10;99.90;;;;;;4934332;29;20102;-70
2021/05/01 12:44:50;;;;;;;8.57;1.15;;;18.10;99.90;;;;;;4934147;29;20048;-70
2021/05/01 12:47:38;;;;;;;6.38;0.75;;;18.00;99.90;;;;;;4934829;29;20075;-70
2021/05/01 12:50:25;;;;;;;8.43;1.10;;;18.00;99.90;;;;;;4931592;29;20040;-70
2021/05/01 12:53:13;;;;;;;7.53;0.82;;;18.00;99.90;;;;;;4922187;29;20032;-70
2021/05/01 12:56:33;;;;;;;10.57;2.35;;;18.00;99.90;;;;;;4933915;29;20043;-70
2021/05/01 12:59:19;;;;;;;7.60;1.83;;;18.10;99.90;;;;;;4924787;29;20094;-70
2021/05/01 13:01:54;;;;;;;10.82;2.20;;;18.10;99.90;;;;;;4934226;29;20485;-70